Time;durP1;ratioP1;P1;durP2;ratioP2;P2;SDS_P1;SDS_P2;PMS_P1;PMS_P2;Temp;Humidity;BMP_temperature;BMP_pressure;BME280_temperature;BME280_humidity;BME280_pressure;Samples;Min_cycle;Max_cycle;Signal;HPM_P1;HPM_P2
2024/01/20 00:00:28;;;;;;;8.07;7.28;;;17.70;52.00;;;;;;5069779;28;20337;-72
2024/01/20 00:02:53;;;;;;;8.25;7.40;;;17.70;51.90;;;;;;5056174;28;20187;-72
2024/01/20 00:05:19;;;;;;;8.77;7.93;;;17.70;51.90;;;;;;5061710;28;20186;-72
2024/01/20 00:07:45;;;;;;;8.32;7.53;;;17.70;51.90;;;;;;5036966;28;20203;-72
2024/01/20 00:10:11;;;;;;;8.50;7.63;;;17.70;51.90;;;;;;5034543;28;20269;-72
2024/01/20 00:12:42;;;;;;;8.63;7.82;;;17.70;51.90;;;;;;5058547;28;20189;-72
2024/01/20 00:15:09;;;;;;;8.25;7.45;;;17.70;51.80;;;;;;5055804;28;20190;-71
2024/01/20 00:17:37;;;;;;;7.57;6.88;;;17.70;51.90;;;;;;5055948;28;20234;-72
2024/01/20 00:20:04;;;;;;;8.15;7.35;;;17.70;51.80;;;;;;5045670;28;20193;-72
2024/01/20 00:22:30;;;;;;;8.25;7.45;;;17.70;51.80;;;;;;5058070;28;20206;-72
2024/01/20 00:24:59;;;;;;;8.50;7.70;;;17.70;51.90;;;;;;5070483;28;20250;-72
2024/01/20 00:27:25;;;;;;;7.65;6.85;;;17.70;51.80;;;;;;5066798;28;20205;-72
2024/01/20 00:29:52;;;;;;;7.32;6.63;;;17.70;51.90;;;;;;5069142;28;20183;-72
2024/01/20 00:32:18;;;;;;;8.68;7.82;;;17.70;51.80;;;;;;5060004;28;20185;-72
2024/01/20 00:34:43;;;;;;;7.65;6.95;;;17.70;51.80;;;;;;5056030;28;20182;-72
2024/01/20 00:37:09;;;;;;;7.78;7.07;;;17.70;51.80;;;;;;5044073;28;20209;-72
2024/01/20 00:39:36;;;;;;;7.72;7.03;;;17.70;51.80;;;;;;5062612;28;20194;-72
2024/01/20 00:42:02;;;;;;;7.10;6.50;;;17.70;51.80;;;;;;5038045;28;20219;-72
2024/01/20 00:44:27;;;;;;;7.80;7.00;;;17.70;51.80;;;;;;5069748;28;20203;-72
2024/01/20 00:46:53;;;;;;;7.32;6.68;;;17.70;51.80;;;;;;5040263;28;20210;-72
2024/01/20 00:49:19;;;;;;;8.27;7.45;;;17.70;51.80;;;;;;5052478;28;20191;-72
2024/01/20 00:51:45;;;;;;;7.88;7.07;;;17.70;51.70;;;;;;5041024;28;20464;-72
2024/01/20 00:54:11;;;;;;;7.20;6.55;;;17.60;51.70;;;;;;5069337;28;20277;-72
2024/01/20 00:56:36;;;;;;;7.53;6.75;;;17.70;51.70;;;;;;5061673;28;20206;-72
2024/01/20 00:59:02;;;;;;;7.28;6.57;;;17.70;51.80;;;;;;5044282;28;20192;-72
2024/01/20 01:01:28;;;;;;;7.43;6.72;;;17.70;51.70;;;;;;5047811;28;20229;-72
2024/01/20 01:03:54;;;;;;;7.90;7.15;;;17.70;52.30;;;;;;5053508;28;20229;-72
2024/01/20 01:06:19;;;;;;;7.40;6.70;;;17.70;51.70;;;;;;5040566;28;20292;-72
2024/01/20 01:08:45;;;;;;;7.07;6.47;;;17.70;51.60;;;;;;5052146;28;20689;-72
2024/01/20 01:11:11;;;;;;;8.00;7.20;;;17.70;51.60;;;;;;5037234;28;20196;-72
2024/01/20 01:13:39;;;;;;;7.32;6.63;;;17.70;51.60;;;;;;5072128;28;20190;-72
2024/01/20 01:16:05;;;;;;;7.10;6.40;;;17.70;51.60;;;;;;5052614;28;20579;-71
2024/01/20 01:18:33;;;;;;;6.95;6.35;;;17.70;51.70;;;;;;5038595;28;20186;-71
2024/01/20 01:20:58;;;;;;;6.82;6.22;;;17.70;51.60;;;;;;5041644;28;20586;-71
2024/01/20 01:23:24;;;;;;;7.07;6.38;;;17.70;51.60;;;;;;5031895;28;20212;-72
2024/01/20 01:25:50;;;;;;;7.00;6.30;;;17.70;51.70;;;;;;5036314;28;20178;-72
2024/01/20 01:28:16;;;;;;;6.95;6.28;;;17.70;51.80;;;;;;5038410;28;20223;-72
2024/01/20 01:30:44;;;;;;;6.47;5.90;;;17.70;52.30;;;;;;5038885;28;20573;-72
2024/01/20 01:33:10;;;;;;;7.18;6.47;;;17.70;51.70;;;;;;5058857;28;20187;-72
2024/01/20 01:35:36;;;;;;;7.03;6.32;;;17.70;51.70;;;;;;5048647;28;20216;-71
2024/01/20 01:38:02;;;;;;;6.78;6.10;;;17.70;51.70;;;;;;5052886;28;20190;-71
2024/01/20 01:40:28;;;;;;;6.60;5.95;;;17.60;51.60;;;;;;5033386;28;20186;-72
2024/01/20 01:42:56;;;;;;;5.90;5.40;;;17.70;51.70;;;;;;5050863;28;20543;-72
2024/01/20 01:45:26;;;;;;;6.63;6.03;;;17.70;51.60;;;;;;5063563;28;20227;-72
2024/01/20 01:47:54;;;;;;;6.10;5.60;;;17.70;51.70;;;;;;5035559;28;20686;-72
2024/01/20 01:50:21;;;;;;;6.78;6.15;;;17.70;51.70;;;;;;5042843;28;20178;-73
2024/01/20 01:52:54;;;;;;;6.32;5.80;;;17.70;51.70;;;;;;5042798;28;20268;-72
2024/01/20 01:55:23;;;;;;;6.25;5.68;;;17.70;51.70;;;;;;5047936;28;20182;-72
2024/01/20 01:57:56;;;;;;;5.75;5.25;;;17.70;51.60;;;;;;5041141;28;20203;-72
2024/01/20 02:00:21;;;;;;;6.03;5.53;;;17.70;51.70;;;;;;5046558;28;20186;-72
2024/01/20 02:02:48;;;;;;;5.40;4.90;;;17.70;51.60;;;;;;5033089;28;20232;-72
2024/01/20 02:05:13;;;;;;;5.93;5.38;;;17.70;51.60;;;;;;5036306;28;20232;-72
2024/01/20 02:07:42;;;;;;;5.82;5.32;;;17.70;51.60;;;;;;5040804;28;20198;-72
2024/01/20 02:10:11;;;;;;;5.90;5.40;;;17.70;51.60;;;;;;5052678;28;20688;-72
2024/01/20 02:12:39;;;;;;;6.05;5.55;;;17.70;51.60;;;;;;5050991;28;20189;-72
2024/01/20 02:15:06;;;;;;;5.93;5.43;;;17.70;51.60;;;;;;5051774;28;20194;-72
2024/01/20 02:17:32;;;;;;;5.65;5.15;;;17.70;51.80;;;;;;5036071;28;20323;-72
2024/01/20 02:19:57;;;;;;;5.88;5.38;;;17.70;51.70;;;;;;5033021;28;20282;-72
2024/01/20 02:22:23;;;;;;;5.57;5.07;;;17.70;51.80;;;;;;5051079;28;20211;-71
2024/01/20 02:24:50;;;;;;;5.93;5.32;;;17.70;51.60;;;;;;5049052;28;20191;-71
2024/01/20 02:27:18;;;;;;;5.30;4.80;;;17.70;51.60;;;;;;5045452;28;20686;-71
2024/01/20 02:29:43;;;;;;;5.30;4.90;;;17.70;51.80;;;;;;5052256;28;20183;-72
2024/01/20 02:32:09;;;;;;;5.85;5.35;;;17.70;51.70;;;;;;5052340;28;20198;-71
2024/01/20 02:34:37;;;;;;;4.75;4.35;;;17.70;51.60;;;;;;5058448;28;20194;-71
2024/01/20 02:37:05;;;;;;;5.65;5.15;;;17.70;51.70;;;;;;5067235;28;20202;-72
2024/01/20 02:39:31;;;;;;;5.28;4.78;;;17.70;51.80;;;;;;5045361;28;20268;-72
2024/01/20 02:41:57;;;;;;;5.20;4.70;;;17.70;51.60;;;;;;5058565;28;20240;-71
2024/01/20 02:44:23;;;;;;;5.65;5.15;;;17.60;51.60;;;;;;5038680;28;20189;-72
2024/01/20 02:46:48;;;;;;;5.43;4.93;;;17.70;51.70;;;;;;5034764;28;20210;-72
2024/01/20 02:49:14;;;;;;;4.93;4.53;;;17.70;51.60;;;;;;5054090;28;20202;-72
2024/01/20 02:51:40;;;;;;;5.13;4.72;;;17.70;51.70;;;;;;5052559;28;20222;-72
2024/01/20 02:54:06;;;;;;;4.85;4.45;;;17.70;51.70;;;;;;5049834;28;20210;-72
2024/01/20 02:56:31;;;;;;;4.72;4.32;;;17.70;51.60;;;;;;5053478;28;20261;-71
2024/01/20 02:58:57;;;;;;;4.72;4.32;;;17.70;51.70;;;;;;5041292;28;20191;-72
2024/01/20 03:01:23;;;;;;;4.80;4.40;;;17.70;51.60;;;;;;5060746;28;20241;-72
2024/01/20 03:03:49;;;;;;;5.07;4.68;;;17.70;51.60;;;;;;5037793;28;20672;-72
2024/01/20 03:06:15;;;;;;;4.63;4.22;;;17.70;51.60;;;;;;5037241;28;20211;-72
2024/01/20 03:08:41;;;;;;;4.30;3.90;;;17.70;51.60;;;;;;5036825;28;20185;-72
2024/01/20 03:11:06;;;;;;;4.32;3.92;;;17.70;51.60;;;;;;5044464;28;20206;-71
2024/01/20 03:13:32;;;;;;;4.05;3.75;;;17.70;51.70;;;;;;5052060;28;20179;-72
2024/01/20 03:15:58;;;;;;;3.95;3.63;;;17.70;51.60;;;;;;5036840;28;20271;-72
2024/01/20 03:18:24;;;;;;;4.03;3.72;;;17.70;51.70;;;;;;5041619;28;20249;-71
2024/01/20 03:20:50;;;;;;;4.10;3.78;;;17.70;51.70;;;;;;5068276;28;20214;-72
2024/01/20 03:23:15;;;;;;;4.22;3.92;;;17.70;51.70;;;;;;5053457;28;20244;-72
2024/01/20 03:25:41;;;;;;;4.10;3.80;;;17.70;51.60;;;;;;5035691;28;20186;-72
2024/01/20 03:28:07;;;;;;;4.10;3.80;;;17.70;51.60;;;;;;5055038;28;20221;-72
2024/01/20 03:30:33;;;;;;;3.95;3.65;;;17.70;51.60;;;;;;5050571;28;20175;-72
2024/01/20 03:32:58;;;;;;;3.95;3.55;;;17.70;51.60;;;;;;5045770;28;20187;-72
2024/01/20 03:35:24;;;;;;;4.10;3.80;;;17.70;51.60;;;;;;5037489;28;20187;-72
2024/01/20 03:37:50;;;;;;;4.13;3.75;;;17.70;51.60;;;;;;5067250;28;20621;-72
2024/01/20 03:40:16;;;;;;;4.50;4.10;;;17.70;51.60;;;;;;5055633;28;20186;-72
2024/01/20 03:42:42;;;;;;;4.07;3.78;;;17.70;51.50;;;;;;5032960;28;20218;-72
2024/01/20 03:45:08;;;;;;;4.18;3.88;;;17.60;51.60;;;;;;5032482;28;20195;-72
2024/01/20 03:47:33;;;;;;;4.07;3.67;;;17.70;51.60;;;;;;5033065;28;20203;-72
2024/01/20 03:49:59;;;;;;;4.32;4.00;;;17.60;51.40;;;;;;5028686;28;20253;-72
2024/01/20 03:52:25;;;;;;;4.40;4.00;;;17.60;51.40;;;;;;5047864;28;20191;-72
2024/01/20 03:54:50;;;;;;;4.05;3.75;;;17.70;51.50;;;;;;5040817;28;20179;-72
2024/01/20 03:57:16;;;;;;;4.10;3.70;;;17.70;51.50;;;;;;5050991;28;20218;-72
2024/01/20 03:59:42;;;;;;;3.95;3.63;;;17.60;51.40;;;;;;5049724;28;20209;-72
2024/01/20 04:02:08;;;;;;;4.40;4.00;;;17.70;51.50;;;;;;5051781;28;20240;-71
2024/01/20 04:04:37;;;;;;;3.75;3.45;;;17.70;51.80;;;;;;5032606;28;20261;-71
2024/01/20 04:07:03;;;;;;;4.13;3.72;;;17.70;51.50;;;;;;5031010;28;20210;-72
2024/01/20 04:09:29;;;;;;;4.50;4.10;;;17.60;51.40;;;;;;5043694;28;20182;-71
2024/01/20 04:11:55;;;;;;;4.45;4.05;;;17.60;51.40;;;;;;5049926;28;20189;-71
2024/01/20 04:14:20;;;;;;;4.13;3.72;;;17.60;51.40;;;;;;5070991;28;20189;-71
2024/01/20 04:16:47;;;;;;;3.80;3.50;;;17.60;51.40;;;;;;5071062;28;20221;-71
2024/01/20 04:19:13;;;;;;;4.30;3.90;;;17.60;51.40;;;;;;5064219;28;20239;-71
2024/01/20 04:21:39;;;;;;;3.80;3.50;;;17.60;51.30;;;;;;5046525;28;20206;-71
2024/01/20 04:24:05;;;;;;;4.18;3.78;;;17.60;51.40;;;;;;5057802;28;20197;-72
2024/01/20 04:26:31;;;;;;;3.90;3.60;;;17.70;51.50;;;;;;5050875;28;20198;-71
2024/01/20 04:28:57;;;;;;;4.03;3.65;;;17.60;51.30;;;;;;5050969;28;20281;-71
2024/01/20 04:31:23;;;;;;;4.10;3.70;;;17.60;51.40;;;;;;5067395;28;20269;-71
2024/01/20 04:33:48;;;;;;;4.35;3.95;;;17.60;51.30;;;;;;5066241;28;20194;-71
2024/01/20 04:36:14;;;;;;;4.05;3.75;;;17.60;51.30;;;;;;5076270;28;20221;-72
2024/01/20 04:38:40;;;;;;;4.40;4.00;;;17.60;51.30;;;;;;5075764;28;20189;-72
2024/01/20 04:41:06;;;;;;;4.43;4.03;;;17.60;51.20;;;;;;5066704;28;20219;-72
2024/01/20 04:43:31;;;;;;;4.82;4.32;;;17.60;51.30;;;;;;5079988;28;20194;-72
2024/01/20 04:45:57;;;;;;;4.80;4.40;;;17.60;51.20;;;;;;5051416;28;20217;-71
2024/01/20 04:48:23;;;;;;;4.65;4.25;;;17.60;51.20;;;;;;5063001;28;20235;-71
2024/01/20 04:50:49;;;;;;;4.47;4.05;;;17.60;51.20;;;;;;5062763;28;20189;-71
2024/01/20 04:53:15;;;;;;;4.50;4.10;;;17.60;51.30;;;;;;5059228;28;20216;-72
2024/01/20 04:55:41;;;;;;;4.38;3.97;;;17.60;51.20;;;;;;5064691;28;20271;-72
2024/01/20 04:58:07;;;;;;;4.47;4.07;;;17.60;51.20;;;;;;5060778;28;20236;-72
2024/01/20 05:00:35;;;;;;;4.57;3.92;;;17.60;51.20;;;;;;5065765;28;20192;-71
2024/01/20 05:03:01;;;;;;;4.63;4.22;;;17.60;51.20;;;;;;5042452;28;20206;-71
2024/01/20 05:05:27;;;;;;;4.22;3.83;;;17.60;51.20;;;;;;5034752;28;20276;-71
2024/01/20 05:07:53;;;;;;;3.70;3.40;;;17.60;51.20;;;;;;5043250;28;20290;-72
2024/01/20 05:10:19;;;;;;;4.03;3.70;;;17.60;51.20;;;;;;5029486;28;20183;-72
2024/01/20 05:12:45;;;;;;;4.65;4.15;;;17.60;51.10;;;;;;5045101;28;20179;-71
2024/01/20 05:15:12;;;;;;;4.30;3.90;;;17.60;51.20;;;;;;5041388;28;20535;-71
2024/01/20 05:17:39;;;;;;;4.15;3.75;;;17.60;51.10;;;;;;5036987;28;20217;-71
2024/01/20 05:20:05;;;;;;;4.00;3.70;;;17.60;51.20;;;;;;5058328;28;20191;-71
2024/01/20 05:22:32;;;;;;;3.83;3.53;;;17.60;51.20;;;;;;5036326;28;20256;-71
2024/01/20 05:24:57;;;;;;;4.38;4.00;;;17.60;51.20;;;;;;5055476;28;20202;-71
2024/01/20 05:27:23;;;;;;;4.50;4.07;;;17.60;51.10;;;;;;5050902;28;20202;-71
2024/01/20 05:29:49;;;;;;;4.38;3.97;;;17.50;51.00;;;;;;5044526;28;20186;-72
2024/01/20 05:32:15;;;;;;;4.07;3.78;;;17.60;51.10;;;;;;5059939;28;20189;-71
2024/01/20 05:34:41;;;;;;;4.18;3.72;;;17.60;51.10;;;;;;5043739;28;20231;-71
2024/01/20 05:37:07;;;;;;;3.80;3.50;;;17.60;51.10;;;;;;5062281;28;20210;-71
2024/01/20 05:39:34;;;;;;;4.38;3.97;;;17.60;51.00;;;;;;5052551;28;20576;-71
2024/01/20 05:42:00;;;;;;;4.05;3.75;;;17.60;50.90;;;;;;5036117;28;20215;-71
2024/01/20 05:44:28;;;;;;;3.95;3.65;;;17.50;50.90;;;;;;5065919;28;20268;-72
2024/01/20 05:46:54;;;;;;;4.05;3.70;;;17.60;51.00;;;;;;5044271;28;20200;-72
2024/01/20 05:49:20;;;;;;;4.22;3.83;;;17.50;50.90;;;;;;5056226;28;20187;-71
2024/01/20 05:51:45;;;;;;;3.78;3.40;;;17.60;50.90;;;;;;5052788;28;20199;-71
2024/01/20 05:54:11;;;;;;;3.75;3.45;;;17.60;50.90;;;;;;5053533;28;20243;-71
2024/01/20 05:56:37;;;;;;;3.83;3.53;;;17.60;50.90;;;;;;5040442;28;20207;-71
2024/01/20 05:59:03;;;;;;;4.25;3.85;;;17.50;50.90;;;;;;5050053;28;20323;-71
2024/01/20 06:01:29;;;;;;;4.00;3.70;;;17.60;50.90;;;;;;5033380;28;20226;-71
2024/01/20 06:03:54;;;;;;;4.68;4.10;;;17.60;50.80;;;;;;5061038;28;20181;-70
2024/01/20 06:06:20;;;;;;;3.90;3.60;;;17.50;50.80;;;;;;5074834;28;20232;-71
2024/01/20 06:08:46;;;;;;;3.83;3.42;;;17.60;51.50;;;;;;5036523;28;20220;-71
2024/01/20 06:11:13;;;;;;;4.47;4.07;;;17.60;50.80;;;;;;5042633;28;20200;-71
2024/01/20 06:13:39;;;;;;;3.90;3.50;;;17.60;50.90;;;;;;5044709;28;20187;-71
2024/01/20 06:16:06;;;;;;;3.60;3.30;;;17.60;50.80;;;;;;5070576;28;20232;-72
2024/01/20 06:18:32;;;;;;;3.90;3.60;;;17.60;50.80;;;;;;5051882;28;20270;-72
2024/01/20 06:20:59;;;;;;;4.00;3.70;;;17.50;50.80;;;;;;5062780;28;20309;-72
2024/01/20 06:23:26;;;;;;;3.95;3.65;;;17.50;50.80;;;;;;5042597;28;20186;-72
2024/01/20 06:25:52;;;;;;;4.13;3.72;;;17.50;50.80;;;;;;5047497;28;20182;-70
2024/01/20 06:28:18;;;;;;;3.78;3.47;;;17.60;50.80;;;;;;5051605;28;20193;-72
2024/01/20 06:30:46;;;;;;;4.18;3.80;;;17.60;50.80;;;;;;5052228;28;20177;-71
2024/01/20 06:33:12;;;;;;;4.50;4.10;;;17.50;50.70;;;;;;5053700;28;20195;-71
2024/01/20 06:35:38;;;;;;;4.13;3.72;;;17.50;50.60;;;;;;5037503;28;20198;-71
2024/01/20 06:38:04;;;;;;;4.13;3.72;;;17.50;50.60;;;;;;5054990;28;20178;-70
2024/01/20 06:40:30;;;;;;;4.07;3.67;;;17.50;50.60;;;;;;5050873;28;20194;-70
2024/01/20 06:42:56;;;;;;;4.35;3.95;;;17.50;50.60;;;;;;5048252;28;20208;-71
2024/01/20 06:45:37;;;;;;;3.90;3.50;;;17.60;50.60;;;;;;5066046;28;20193;-71
2024/01/20 06:48:09;;;;;;;3.78;3.45;;;17.60;50.70;;;;;;5034883;28;20202;-71
2024/01/20 06:50:42;;;;;;;4.30;3.90;;;17.50;50.50;;;;;;5052132;28;20198;-71
2024/01/20 06:53:11;;;;;;;4.43;4.03;;;17.50;50.60;;;;;;5076896;28;20284;-71
2024/01/20 06:55:38;;;;;;;3.72;3.35;;;17.50;50.60;;;;;;5057344;28;20256;-71
2024/01/20 06:58:04;;;;;;;4.07;3.78;;;17.50;50.70;;;;;;5054151;28;20198;-71
2024/01/20 07:00:30;;;;;;;4.35;3.95;;;17.50;50.60;;;;;;5040687;28;20252;-70
2024/01/20 07:02:58;;;;;;;4.03;3.72;;;17.50;51.20;;;;;;5050848;28;20219;-72
2024/01/20 07:05:24;;;;;;;4.68;4.28;;;17.50;50.50;;;;;;5036486;28;20199;-72
2024/01/20 07:07:50;;;;;;;4.32;3.92;;;17.40;50.50;;;;;;5041974;28;20294;-72
2024/01/20 07:10:15;;;;;;;5.40;4.50;;;17.50;50.60;;;;;;5042962;28;20209;-72
2024/01/20 07:12:41;;;;;;;4.78;4.38;;;17.50;50.40;;;;;;5056733;28;20268;-72
2024/01/20 07:15:08;;;;;;;4.47;4.13;;;17.50;50.50;;;;;;5027706;28;20211;-72
2024/01/20 07:17:34;;;;;;;4.28;3.88;;;17.50;50.40;;;;;;5047849;28;20567;-72
2024/01/20 07:20:00;;;;;;;4.70;4.25;;;17.50;50.40;;;;;;5038042;28;20187;-72
2024/01/20 07:22:26;;;;;;;4.82;4.38;;;17.50;50.40;;;;;;5033804;28;20242;-72
2024/01/20 07:24:54;;;;;;;5.32;4.70;;;17.50;50.40;;;;;;5040980;28;20281;-72
2024/01/20 07:27:20;;;;;;;4.80;4.32;;;17.50;50.40;;;;;;5042627;28;20210;-72
2024/01/20 07:29:46;;;;;;;4.70;4.30;;;17.50;50.40;;;;;;5026973;28;20190;-72
2024/01/20 07:32:11;;;;;;;4.22;3.83;;;17.50;50.30;;;;;;5034912;28;20191;-73
2024/01/20 07:34:37;;;;;;;4.57;4.18;;;17.50;50.30;;;;;;5043611;28;20187;-72
2024/01/20 07:37:03;;;;;;;4.60;4.20;;;17.50;50.30;;;;;;5041659;28;20299;-72
2024/01/20 07:39:29;;;;;;;4.55;4.15;;;17.50;50.40;;;;;;5023766;28;20194;-73
2024/01/20 07:41:55;;;;;;;4.68;4.25;;;17.50;50.30;;;;;;5042823;28;20226;-73
2024/01/20 07:44:20;;;;;;;4.53;4.07;;;17.50;50.30;;;;;;5042614;28;20274;-73
2024/01/20 07:46:47;;;;;;;4.50;4.10;;;17.50;50.30;;;;;;5061244;28;20494;-73
2024/01/20 07:49:12;;;;;;;4.50;4.10;;;17.50;50.30;;;;;;5044672;28;20293;-73
2024/01/20 07:51:38;;;;;;;4.65;4.25;;;17.50;50.40;;;;;;5045443;28;20658;-72
2024/01/20 07:54:04;;;;;;;5.13;4.65;;;17.50;50.30;;;;;;5058252;28;20593;-72
2024/01/20 07:56:30;;;;;;;5.57;5.07;;;17.50;50.30;;;;;;5056778;28;20214;-72
2024/01/20 07:58:56;;;;;;;5.32;4.82;;;17.40;50.20;;;;;;5045155;28;20232;-73
2024/01/20 08:01:22;;;;;;;5.88;5.32;;;17.50;50.30;;;;;;5050664;28;20202;-73
2024/01/20 08:03:48;;;;;;;6.18;5.68;;;17.50;50.30;;;;;;5058134;28;20211;-72
2024/01/20 08:06:13;;;;;;;5.65;5.25;;;17.50;50.30;;;;;;5048074;28;20244;-73
2024/01/20 08:08:40;;;;;;;6.43;5.80;;;17.50;50.30;;;;;;5049524;28;20218;-73
2024/01/20 08:11:05;;;;;;;6.80;6.20;;;17.50;50.20;;;;;;5066444;28;20268;-73
2024/01/20 08:13:31;;;;;;;6.63;6.03;;;17.50;50.20;;;;;;5045157;28;20277;-72
2024/01/20 08:15:57;;;;;;;5.90;5.40;;;17.50;50.20;;;;;;5060284;28;20225;-72
2024/01/20 08:18:23;;;;;;;7.00;6.40;;;17.50;50.20;;;;;;5039915;28;20221;-73
2024/01/20 08:20:48;;;;;;;7.13;6.53;;;17.50;50.20;;;;;;5050009;28;20220;-73
2024/01/20 08:23:14;;;;;;;7.28;6.68;;;17.50;50.10;;;;;;5064961;28;20188;-73
2024/01/20 08:25:40;;;;;;;7.53;6.82;;;17.50;50.20;;;;;;5051213;28;20191;-73
2024/01/20 08:28:06;;;;;;;6.82;6.22;;;17.50;50.20;;;;;;5036381;28;20282;-72
2024/01/20 08:30:32;;;;;;;7.20;6.50;;;17.50;50.10;;;;;;5050904;28;20191;-73
2024/01/20 08:32:58;;;;;;;7.30;6.70;;;17.50;50.10;;;;;;5073297;28;20197;-73
2024/01/20 08:35:24;;;;;;;7.53;6.82;;;17.50;50.20;;;;;;5031891;28;20210;-73
2024/01/20 08:37:49;;;;;;;7.50;6.70;;;17.50;50.10;;;;;;5048393;28;20202;-73
2024/01/20 08:40:15;;;;;;;7.18;6.47;;;17.50;50.10;;;;;;5047847;28;20226;-72
2024/01/20 08:42:42;;;;;;;6.93;6.28;;;17.50;50.10;;;;;;5041958;28;20217;-73
2024/01/20 08:45:08;;;;;;;7.63;6.88;;;17.50;50.10;;;;;;5054235;28;20194;-73
2024/01/20 08:47:34;;;;;;;7.13;6.53;;;17.50;50.10;;;;;;5053782;28;20215;-73
2024/01/20 08:50:00;;;;;;;7.13;6.53;;;17.50;50.10;;;;;;5063446;28;20182;-72
2024/01/20 08:52:25;;;;;;;7.07;6.38;;;17.50;50.20;;;;;;5038565;28;20190;-73
2024/01/20 08:54:51;;;;;;;8.02;7.22;;;17.50;50.20;;;;;;5052796;28;20194;-73
2024/01/20 08:57:17;;;;;;;7.05;6.35;;;17.50;50.10;;;;;;5076566;28;20213;-72
2024/01/20 08:59:43;;;;;;;7.45;6.75;;;17.50;50.20;;;;;;5060493;28;20554;-73
2024/01/20 09:02:08;;;;;;;6.70;6.10;;;17.50;50.10;;;;;;5055720;28;20205;-73
2024/01/20 09:04:34;;;;;;;6.80;6.15;;;17.50;50.10;;;;;;5072540;28;20202;-72
2024/01/20 09:07:00;;;;;;;7.00;6.20;;;17.50;50.20;;;;;;5061991;28;20201;-72
2024/01/20 09:09:26;;;;;;;6.78;6.15;;;17.50;50.20;;;;;;5039317;28;20194;-73
2024/01/20 09:11:52;;;;;;;6.43;5.82;;;17.50;50.10;;;;;;5059840;28;20237;-72
2024/01/20 09:14:17;;;;;;;6.70;6.10;;;17.50;50.10;;;;;;5048241;28;20194;-73
2024/01/20 09:16:43;;;;;;;6.68;6.07;;;17.60;50.20;;;;;;5050863;28;20221;-72
2024/01/20 09:19:09;;;;;;;6.88;6.28;;;17.60;50.20;;;;;;5066140;28;20196;-73
2024/01/20 09:21:35;;;;;;;6.70;6.10;;;17.50;50.20;;;;;;5056441;28;20213;-73
2024/01/20 09:24:02;;;;;;;6.03;5.53;;;17.50;50.20;;;;;;5062763;28;20243;-73
2024/01/20 09:26:28;;;;;;;5.85;5.35;;;17.50;50.20;;;;;;5060571;28;20232;-72
2024/01/20 09:28:54;;;;;;;5.68;5.18;;;17.60;50.20;;;;;;5037442;28;20871;-72
2024/01/20 09:31:19;;;;;;;8.43;6.28;;;17.60;50.30;;;;;;5056531;28;20295;-72
2024/01/20 09:33:46;;;;;;;6.40;5.80;;;17.60;50.30;;;;;;5026001;28;20205;-71
2024/01/20 09:36:12;;;;;;;5.90;5.40;;;17.60;50.30;;;;;;5023890;28;20210;-72
2024/01/20 09:38:38;;;;;;;5.75;5.25;;;17.60;50.40;;;;;;5040834;28;20193;-71
2024/01/20 09:41:09;;;;;;;5.35;4.85;;;17.50;50.30;;;;;;5025129;28;20207;-71
2024/01/20 09:43:38;;;;;;;5.20;4.70;;;17.60;50.40;;;;;;5036646;28;20187;-71
2024/01/20 09:46:05;;;;;;;5.65;5.15;;;17.60;50.40;;;;;;5047706;28;20210;-71
2024/01/20 09:48:31;;;;;;;5.70;5.20;;;17.60;50.40;;;;;;5044706;28;20188;-71
2024/01/20 09:50:58;;;;;;;5.53;5.03;;;17.60;50.40;;;;;;5032510;28;20190;-71
2024/01/20 09:53:25;;;;;;;6.15;5.03;;;17.60;50.40;;;;;;5049638;28;20191;-71
2024/01/20 09:55:51;;;;;;;5.20;4.72;;;17.60;50.40;;;;;;5033125;28;20198;-72
2024/01/20 09:58:18;;;;;;;5.38;4.88;;;17.60;50.50;;;;;;5073836;28;20190;-71
2024/01/20 10:00:44;;;;;;;4.82;4.43;;;17.60;50.40;;;;;;5056239;28;20205;-72
2024/01/20 10:03:11;;;;;;;4.95;4.55;;;17.60;50.40;;;;;;5057005;28;20181;-72
2024/01/20 10:05:38;;;;;;;5.38;4.88;;;17.60;50.50;;;;;;5057112;28;20182;-71
2024/01/20 10:08:05;;;;;;;5.05;4.55;;;17.60;50.40;;;;;;5054647;28;20174;-72
2024/01/20 10:10:32;;;;;;;5.03;4.55;;;17.60;50.50;;;;;;5051109;28;20269;-71
2024/01/20 10:12:58;;;;;;;4.47;4.07;;;17.60;50.50;;;;;;5048009;28;20228;-72
2024/01/20 10:15:26;;;;;;;4.95;4.50;;;17.60;50.50;;;;;;5041215;28;20181;-72
2024/01/20 10:17:53;;;;;;;4.93;4.43;;;17.60;50.50;;;;;;5062307;28;20214;-72
2024/01/20 10:20:31;;;;;;;4.90;4.50;;;17.60;50.50;;;;;;5058644;28;20186;-72
2024/01/20 10:23:02;;;;;;;5.35;4.38;;;17.60;50.60;;;;;;5039984;28;20757;-71
2024/01/20 10:25:28;;;;;;;5.32;4.82;;;17.60;50.50;;;;;;5040248;28;20645;-72
2024/01/20 10:27:54;;;;;;;4.40;4.00;;;17.70;50.60;;;;;;5038828;28;20286;-72
2024/01/20 10:30:21;;;;;;;4.57;4.18;;;17.70;50.70;;;;;;5041293;28;20270;-72
2024/01/20 10:32:48;;;;;;;4.57;4.18;;;17.70;50.70;;;;;;5056254;28;20273;-72
2024/01/20 10:35:14;;;;;;;4.65;4.25;;;17.70;50.60;;;;;;5076109;28;20184;-72
2024/01/20 10:37:44;;;;;;;4.55;4.15;;;17.70;50.70;;;;;;5041215;28;20211;-72
2024/01/20 10:40:12;;;;;;;4.53;4.13;;;17.70;50.70;;;;;;5059030;28;20182;-72
2024/01/20 10:42:42;;;;;;;4.40;4.05;;;17.70;50.80;;;;;;5039430;28;20222;-72
2024/01/20 10:45:19;;;;;;;4.32;3.92;;;17.70;50.70;;;;;;5041939;28;20189;-72
2024/01/20 10:48:15;;;;;;;4.75;4.25;;;17.70;50.70;;;;;;5068775;28;20209;-72
2024/01/20 10:50:47;;;;;;;4.65;4.25;;;17.70;50.70;;;;;;5044075;28;20190;-72
2024/01/20 10:53:14;;;;;;;4.45;4.05;;;17.70;50.70;;;;;;5047405;28;20230;-72
2024/01/20 10:55:42;;;;;;;4.13;3.83;;;17.70;50.70;;;;;;5055034;28;20194;-72
2024/01/20 10:58:10;;;;;;;4.18;3.78;;;17.70;50.80;;;;;;5036638;28;20197;-72
2024/01/20 11:00:38;;;;;;;4.47;4.10;;;17.70;50.70;;;;;;5024009;28;20266;-72
2024/01/20 11:03:06;;;;;;;4.25;3.85;;;17.80;50.80;;;;;;5038632;28;20171;-73
2024/01/20 11:05:32;;;;;;;4.43;4.03;;;17.70;50.70;;;;;;5032748;28;20195;-72
2024/01/20 11:08:07;;;;;;;3.95;3.53;;;17.80;50.80;;;;;;5038875;28;20290;-72
2024/01/20 11:10:45;;;;;;;4.28;3.88;;;17.70;50.80;;;;;;5050954;28;20186;-72
2024/01/20 11:13:15;;;;;;;5.65;3.95;;;17.70;50.80;;;;;;5045621;28;20179;-72
2024/01/20 11:15:41;;;;;;;3.95;3.65;;;17.70;50.80;;;;;;5028530;28;20711;-72
2024/01/20 11:18:25;;;;;;;3.90;3.53;;;17.80;51.00;;;;;;5032627;28;20293;-72
2024/01/20 11:21:02;;;;;;;4.40;3.95;;;17.70;50.80;;;;;;5042244;28;20183;-72
2024/01/20 11:23:29;;;;;;;3.80;3.40;;;17.70;50.90;;;;;;5043249;28;20205;-72
2024/01/20 11:25:58;;;;;;;4.10;3.70;;;17.70;50.80;;;;;;5041882;28;20186;-71
2024/01/20 11:28:31;;;;;;;3.83;3.53;;;17.80;50.90;;;;;;5031096;28;20187;-71
2024/01/20 11:30:58;;;;;;;4.13;3.83;;;17.80;51.00;;;;;;5040990;28;20382;-72
2024/01/20 11:33:24;;;;;;;3.83;3.53;;;17.80;51.00;;;;;;5040616;28;20185;-72
2024/01/20 11:35:52;;;;;;;4.18;3.78;;;17.80;51.00;;;;;;5042595;28;20195;-72
2024/01/20 11:38:18;;;;;;;3.90;3.60;;;17.80;51.00;;;;;;5050665;28;20194;-72
2024/01/20 11:40:44;;;;;;;3.53;3.22;;;17.80;51.00;;;;;;5036766;28;20207;-72
2024/01/20 11:43:13;;;;;;;3.15;2.92;;;17.80;51.10;;;;;;5054517;28;20228;-72
2024/01/20 11:45:40;;;;;;;3.33;3.03;;;17.80;51.10;;;;;;5043618;28;20203;-71
2024/01/20 11:48:07;;;;;;;3.88;3.53;;;17.80;51.10;;;;;;5037148;28;20206;-72
2024/01/20 11:50:34;;;;;;;3.50;3.20;;;17.80;51.10;;;;;;5040642;28;20178;-71
2024/01/20 11:53:00;;;;;;;3.05;2.80;;;17.80;51.10;;;;;;5070212;28;20190;-72
2024/01/20 11:55:26;;;;;;;3.80;3.33;;;17.80;51.10;;;;;;5080500;28;20193;-72
2024/01/20 11:57:54;;;;;;;3.28;2.97;;;17.80;51.10;;;;;;5057669;28;20194;-72
2024/01/20 12:00:21;;;;;;;3.63;3.33;;;17.80;51.10;;;;;;5075057;28;20209;-72
2024/01/20 12:02:47;;;;;;;3.13;2.92;;;17.80;51.10;;;;;;5056340;28;20202;-71
2024/01/20 12:05:15;;;;;;;3.30;3.08;;;17.70;51.10;;;;;;5048587;28;20659;-71
2024/01/20 12:07:40;;;;;;;3.17;2.88;;;17.80;51.10;;;;;;5062623;28;20201;-72
2024/01/20 12:10:07;;;;;;;3.17;2.88;;;17.80;51.20;;;;;;5052562;28;20282;-72
2024/01/20 12:12:33;;;;;;;3.17;2.88;;;17.80;51.10;;;;;;5036399;28;20187;-72
2024/01/20 12:14:58;;;;;;;3.30;3.00;;;17.80;51.20;;;;;;5053355;28;20194;-72
2024/01/20 12:17:25;;;;;;;3.05;2.75;;;17.80;51.10;;;;;;5059179;28;20227;-72
2024/01/20 12:19:50;;;;;;;3.22;2.92;;;17.80;51.10;;;;;;5073575;28;20199;-71
2024/01/20 12:22:16;;;;;;;3.05;2.85;;;17.80;51.20;;;;;;5069702;28;20220;-72
2024/01/20 12:24:48;;;;;;;3.05;2.60;;;17.80;51.10;;;;;;5045320;28;20182;-72
2024/01/20 12:27:18;;;;;;;2.83;2.63;;;17.80;51.10;;;;;;5041280;28;20229;-72
2024/01/20 12:29:44;;;;;;;2.92;2.67;;;17.80;51.10;;;;;;5056622;28;20197;-72
2024/01/20 12:32:10;;;;;;;3.00;2.80;;;17.80;51.20;;;;;;5038827;28;20184;-72
2024/01/20 12:34:36;;;;;;;2.75;2.55;;;17.80;51.10;;;;;;5057794;28;20233;-72
2024/01/20 12:37:02;;;;;;;2.67;2.47;;;17.80;51.20;;;;;;5056755;28;20207;-72
2024/01/20 12:39:28;;;;;;;2.90;2.70;;;17.80;51.20;;;;;;5062458;28;20236;-72
2024/01/20 12:41:55;;;;;;;2.70;2.50;;;17.80;51.10;;;;;;5050782;28;20229;-72
2024/01/20 12:44:21;;;;;;;2.80;2.60;;;17.80;51.20;;;;;;5056157;28;20178;-72